createdAt,value
2019-03-26T00:00:19.417Z,0
2019-03-26T00:00:59.813Z,0
2019-03-26T00:01:40.212Z,0
2019-03-26T00:02:20.617Z,0
2019-03-26T00:03:01.046Z,0
2019-03-26T00:03:41.465Z,0
2019-03-26T00:04:21.896Z,0
2019-03-26T00:05:02.309Z,0
2019-03-26T00:05:42.733Z,0
2019-03-26T00:06:23.158Z,0
2019-03-26T00:07:03.578Z,0
2019-03-26T00:07:44.000Z,0
2019-03-26T00:08:24.424Z,0
2019-03-26T00:09:04.833Z,0
2019-03-26T00:09:45.257Z,0
2019-03-26T00:10:25.679Z,0
2019-03-26T00:11:06.082Z,0
2019-03-26T00:11:46.444Z,0
2019-03-26T00:12:26.856Z,0
2019-03-26T00:13:07.276Z,0
2019-03-26T00:13:50.417Z,0
2019-03-26T00:14:30.829Z,0
2019-03-26T00:15:11.436Z,0
2019-03-26T00:15:51.854Z,0
2019-03-26T00:16:33.987Z,0
2019-03-26T00:17:15.088Z,0
2019-03-26T00:17:55.480Z,0
2019-03-26T00:18:35.910Z,0
2019-03-26T00:19:16.335Z,0
2019-03-26T00:19:59.803Z,0
2019-03-26T00:20:40.219Z,0
2019-03-26T00:21:20.666Z,0
2019-03-26T00:22:01.077Z,0
2019-03-26T00:22:41.500Z,0
2019-03-26T00:23:21.852Z,0
2019-03-26T00:24:02.246Z,0
2019-03-26T00:24:42.634Z,0
2019-03-26T00:25:26.709Z,0
2019-03-26T00:26:07.086Z,0
2019-03-26T00:26:47.536Z,0
2019-03-26T00:27:27.884Z,0
2019-03-26T00:28:08.201Z,0
2019-03-26T00:28:48.934Z,0
2019-03-26T00:29:32.034Z,0
2019-03-26T00:30:12.410Z,0
2019-03-26T00:30:52.762Z,0
2019-03-26T00:31:33.183Z,0
2019-03-26T00:32:13.571Z,0
2019-03-26T00:32:54.016Z,0
2019-03-26T00:33:36.465Z,0
2019-03-26T00:34:19.366Z,0
2019-03-26T00:34:55.336Z,0
2019-03-26T00:35:35.726Z,0
2019-03-26T00:36:16.086Z,0
2019-03-26T00:36:56.561Z,0
2019-03-26T00:37:37.899Z,0
2019-03-26T00:38:20.180Z,0
2019-03-26T00:39:00.553Z,0
2019-03-26T00:39:40.978Z,0
2019-03-26T00:40:21.605Z,0
2019-03-26T00:41:03.729Z,0
2019-03-26T00:41:44.077Z,0
2019-03-26T00:42:24.505Z,0
2019-03-26T00:43:04.835Z,0
2019-03-26T00:43:46.913Z,0
2019-03-26T00:44:27.322Z,0
2019-03-26T00:45:07.696Z,0
2019-03-26T00:45:48.139Z,0
2019-03-26T00:46:31.137Z,0
2019-03-26T00:47:11.575Z,0
2019-03-26T00:47:51.982Z,0
2019-03-26T00:48:32.310Z,0
2019-03-26T00:49:14.862Z,0
2019-03-26T00:49:55.375Z,0
2019-03-26T00:50:35.753Z,0
2019-03-26T00:51:16.139Z,0
2019-03-26T00:51:56.524Z,0
2019-03-26T00:52:36.945Z,0
2019-03-26T00:53:17.379Z,0
2019-03-26T00:53:57.779Z,0
2019-03-26T00:54:38.204Z,0
2019-03-26T00:55:22.702Z,0
2019-03-26T00:55:59.030Z,0
2019-03-26T00:56:39.451Z,0
2019-03-26T00:57:19.865Z,0
2019-03-26T00:58:01.725Z,0
2019-03-26T00:58:40.724Z,0
2019-03-26T00:59:21.111Z,0
2019-03-26T01:00:01.525Z,0
2019-03-26T01:00:41.954Z,0
2019-03-26T01:01:22.340Z,0
2019-03-26T01:02:06.631Z,0
2019-03-26T01:02:47.997Z,0
2019-03-26T01:03:28.467Z,0
2019-03-26T01:04:08.894Z,0
2019-03-26T01:04:49.298Z,0
2019-03-26T01:05:29.722Z,0
2019-03-26T01:06:10.399Z,0
2019-03-26T01:06:50.798Z,0
2019-03-26T01:07:31.194Z,0
2019-03-26T01:08:11.575Z,0
2019-03-26T01:08:51.987Z,0
2019-03-26T01:09:32.371Z,0
2019-03-26T01:10:13.090Z,0
2019-03-26T01:10:55.816Z,0
2019-03-26T01:11:36.365Z,0
2019-03-26T01:12:16.726Z,0
2019-03-26T01:12:59.218Z,0
2019-03-26T01:13:39.556Z,0
2019-03-26T01:14:19.933Z,0
2019-03-26T01:15:00.420Z,0
2019-03-26T01:15:40.839Z,0
2019-03-26T01:16:21.218Z,0
2019-03-26T01:17:01.600Z,0
2019-03-26T01:17:44.361Z,0
2019-03-26T01:18:24.754Z,0
2019-03-26T01:19:05.148Z,0
2019-03-26T01:19:45.606Z,0
2019-03-26T01:20:26.001Z,0
2019-03-26T01:21:06.417Z,0
2019-03-26T01:21:47.790Z,0
2019-03-26T01:22:28.171Z,0
2019-03-26T01:23:08.583Z,0
2019-03-26T01:23:49.043Z,0
2019-03-26T01:24:29.392Z,0
2019-03-26T01:25:09.808Z,0
2019-03-26T01:25:50.236Z,0
2019-03-26T01:26:30.653Z,0
2019-03-26T01:27:11.085Z,0
2019-03-26T01:27:51.497Z,0
2019-03-26T01:28:31.917Z,0
2019-03-26T01:29:12.344Z,0
2019-03-26T01:29:52.759Z,0
2019-03-26T01:30:33.165Z,0
2019-03-26T01:31:15.051Z,0
2019-03-26T01:31:56.303Z,0
2019-03-26T01:32:38.560Z,0
2019-03-26T01:33:18.887Z,0
2019-03-26T01:33:59.292Z,0
2019-03-26T01:34:45.663Z,0
2019-03-26T01:35:20.099Z,0
2019-03-26T01:36:00.518Z,0
2019-03-26T01:36:40.878Z,0
2019-03-26T01:37:21.277Z,0
2019-03-26T01:38:01.652Z,0
2019-03-26T01:38:42.049Z,0
2019-03-26T01:39:22.439Z,0
2019-03-26T01:40:02.854Z,0
2019-03-26T01:40:43.250Z,0
2019-03-26T01:41:23.669Z,0
2019-03-26T01:42:04.047Z,0
2019-03-26T01:42:44.438Z,0
2019-03-26T01:43:24.851Z,0
2019-03-26T01:44:05.252Z,0
2019-03-26T01:44:45.682Z,0
2019-03-26T01:45:26.106Z,0
2019-03-26T01:46:06.507Z,0
2019-03-26T01:46:46.940Z,0
2019-03-26T01:47:27.382Z,0
2019-03-26T01:48:07.813Z,0
2019-03-26T01:48:48.251Z,0
2019-03-26T01:49:28.655Z,0
2019-03-26T01:50:09.073Z,0
2019-03-26T01:50:49.465Z,0
2019-03-26T01:51:29.887Z,0
2019-03-26T01:52:10.287Z,0
2019-03-26T01:52:50.717Z,0
2019-03-26T01:53:31.147Z,0
2019-03-26T01:54:11.536Z,0
2019-03-26T01:54:51.902Z,0
2019-03-26T01:55:32.335Z,0
2019-03-26T01:56:12.762Z,0
2019-03-26T01:56:53.180Z,0
2019-03-26T01:57:33.599Z,0
2019-03-26T01:58:14.027Z,0
2019-03-26T01:58:54.445Z,0
2019-03-26T01:59:34.877Z,0
2019-03-26T02:00:15.869Z,0
2019-03-26T02:00:56.306Z,0
2019-03-26T02:03:14.162Z,0
2019-03-26T02:03:54.565Z,0
2019-03-26T02:04:35.034Z,0
2019-03-26T02:05:21.533Z,0
2019-03-26T02:06:01.934Z,0
2019-03-26T02:06:42.352Z,0
2019-03-26T02:07:23.091Z,0
2019-03-26T02:08:03.397Z,0
2019-03-26T02:08:43.743Z,0
2019-03-26T02:09:24.103Z,0
2019-03-26T02:10:04.523Z,0
2019-03-26T02:10:45.324Z,0
2019-03-26T02:11:25.662Z,0
2019-03-26T02:12:06.063Z,0
2019-03-26T02:12:48.532Z,0
2019-03-26T02:13:28.804Z,0
2019-03-26T02:14:09.220Z,0
2019-03-26T02:14:49.643Z,0
2019-03-26T02:15:30.082Z,0
2019-03-26T02:16:10.488Z,0
2019-03-26T02:16:50.911Z,0
2019-03-26T02:17:31.446Z,0
2019-03-26T02:18:11.858Z,0
2019-03-26T02:18:52.275Z,0
2019-03-26T02:19:32.687Z,0
2019-03-26T02:20:13.090Z,0
2019-03-26T02:20:53.505Z,0
2019-03-26T02:21:33.911Z,0
2019-03-26T02:22:14.317Z,0
2019-03-26T02:22:54.728Z,0
2019-03-26T02:23:35.155Z,0
2019-03-26T02:24:15.573Z,0
2019-03-26T02:24:56.358Z,0
2019-03-26T02:25:36.753Z,0
2019-03-26T02:26:17.158Z,0
2019-03-26T02:26:57.890Z,0
2019-03-26T02:27:38.271Z,0
2019-03-26T02:28:18.700Z,0
2019-03-26T02:28:59.147Z,0
2019-03-26T02:29:39.581Z,0
2019-03-26T02:30:19.991Z,0
2019-03-26T02:31:00.420Z,0
2019-03-26T02:31:40.896Z,0
2019-03-26T02:32:21.314Z,0
2019-03-26T02:33:01.733Z,0
2019-03-26T02:33:42.096Z,0
2019-03-26T02:34:22.565Z,0
2019-03-26T02:35:16.623Z,0
2019-03-26T02:35:43.343Z,0
2019-03-26T02:36:23.755Z,0
2019-03-26T02:37:04.212Z,0
2019-03-26T02:37:44.624Z,0
2019-03-26T02:38:25.046Z,0
2019-03-26T02:39:05.474Z,0
2019-03-26T02:39:45.890Z,0
2019-03-26T02:40:26.299Z,0
2019-03-26T02:41:06.730Z,0
2019-03-26T02:41:47.156Z,0
2019-03-26T02:42:27.569Z,0
2019-03-26T02:43:07.995Z,0
2019-03-26T02:43:48.423Z,0
2019-03-26T02:44:28.864Z,0
2019-03-26T02:45:09.289Z,0
2019-03-26T02:45:49.685Z,0
2019-03-26T02:46:30.060Z,0
2019-03-26T02:47:10.438Z,0
2019-03-26T02:47:50.922Z,0
2019-03-26T02:48:31.328Z,0
2019-03-26T02:49:11.757Z,0
2019-03-26T02:49:52.176Z,0
2019-03-26T02:50:32.602Z,0
2019-03-26T02:51:13.058Z,0
2019-03-26T02:51:53.487Z,0
2019-03-26T02:52:33.878Z,0
2019-03-26T02:53:14.297Z,0
2019-03-26T02:53:54.696Z,0
2019-03-26T02:54:35.115Z,0
2019-03-26T02:55:15.542Z,0
2019-03-26T02:55:55.959Z,0
2019-03-26T02:56:36.386Z,0
2019-03-26T02:57:16.823Z,0
2019-03-26T02:57:57.243Z,0
2019-03-26T02:58:37.669Z,0
2019-03-26T02:59:18.087Z,0
2019-03-26T02:59:58.570Z,0
2019-03-26T03:00:38.873Z,0
2019-03-26T03:01:19.290Z,0
2019-03-26T03:01:59.701Z,0
2019-03-26T03:02:40.120Z,0
2019-03-26T03:03:20.547Z,0
2019-03-26T03:04:00.972Z,0
2019-03-26T03:04:41.383Z,0
2019-03-26T03:05:34.166Z,0
2019-03-26T03:06:02.209Z,0
2019-03-26T03:06:42.619Z,0
2019-03-26T03:07:23.032Z,0
2019-03-26T03:08:03.503Z,0
2019-03-26T03:08:43.918Z,0
2019-03-26T03:09:24.340Z,0
2019-03-26T03:10:04.750Z,0
2019-03-26T03:10:45.307Z,0
2019-03-26T03:11:25.704Z,0
2019-03-26T03:12:06.150Z,0
2019-03-26T03:12:46.545Z,0
2019-03-26T03:13:26.895Z,0
2019-03-26T03:14:07.327Z,0
2019-03-26T03:14:47.753Z,0
2019-03-26T03:15:28.128Z,0
2019-03-26T03:16:08.543Z,0
2019-03-26T03:16:48.965Z,0
2019-03-26T03:17:29.410Z,0
2019-03-26T03:18:09.823Z,0
2019-03-26T03:18:50.238Z,0
2019-03-26T03:19:30.655Z,0
2019-03-26T03:20:11.060Z,0
2019-03-26T03:20:51.451Z,0
2019-03-26T03:21:31.894Z,0
2019-03-26T03:22:12.218Z,0
2019-03-26T03:22:52.618Z,0
2019-03-26T03:23:33.036Z,0
2019-03-26T03:24:13.415Z,0
2019-03-26T03:24:53.851Z,0
2019-03-26T03:25:34.275Z,0
2019-03-26T03:26:14.696Z,0
2019-03-26T03:26:55.097Z,0
2019-03-26T03:27:35.727Z,0
2019-03-26T03:28:16.330Z,0
2019-03-26T03:28:56.747Z,0
2019-03-26T03:29:38.715Z,0
2019-03-26T03:30:19.116Z,0
2019-03-26T03:31:00.471Z,0
2019-03-26T03:31:40.857Z,0
2019-03-26T03:32:21.215Z,0
2019-03-26T03:33:02.301Z,0
2019-03-26T03:33:42.891Z,0
2019-03-26T03:34:23.218Z,0
2019-03-26T03:35:03.621Z,0
2019-03-26T03:35:51.690Z,0
2019-03-26T03:36:24.458Z,0
2019-03-26T03:37:04.882Z,0
2019-03-26T03:37:45.317Z,0
2019-03-26T03:38:25.730Z,0
2019-03-26T03:39:06.138Z,0
2019-03-26T03:39:46.563Z,0
2019-03-26T03:40:26.990Z,0
2019-03-26T03:41:07.446Z,0
2019-03-26T03:41:47.864Z,0
2019-03-26T03:42:28.267Z,0
2019-03-26T03:43:08.691Z,0
2019-03-26T03:43:49.120Z,0
2019-03-26T03:44:29.514Z,0
2019-03-26T03:45:09.909Z,0
2019-03-26T03:45:50.634Z,0
2019-03-26T03:46:32.626Z,0
2019-03-26T03:47:13.008Z,0
2019-03-26T03:47:53.383Z,0
2019-03-26T03:48:33.805Z,0
2019-03-26T03:49:14.235Z,0
2019-03-26T03:49:54.646Z,0
2019-03-26T03:50:35.048Z,0
2019-03-26T03:51:15.473Z,0
2019-03-26T03:51:55.898Z,0
2019-03-26T03:52:36.319Z,0
2019-03-26T03:53:16.736Z,0
2019-03-26T03:53:57.173Z,0
2019-03-26T03:54:37.592Z,0
2019-03-26T03:55:18.023Z,0
2019-03-26T03:55:58.546Z,0
2019-03-26T03:56:39.757Z,0
2019-03-26T03:57:20.134Z,0
2019-03-26T03:58:03.633Z,0
2019-03-26T03:58:45.830Z,0
2019-03-26T03:59:26.226Z,0
2019-03-26T04:00:06.608Z,0
2019-03-26T04:00:47.019Z,0
2019-03-26T04:01:27.452Z,0
2019-03-26T04:02:09.864Z,0
2019-03-26T04:02:51.939Z,0
2019-03-26T04:03:33.145Z,0
2019-03-26T04:04:14.796Z,0
2019-03-26T04:04:55.583Z,0
2019-03-26T04:05:35.882Z,0
2019-03-26T04:06:16.274Z,0
2019-03-26T04:06:56.772Z,0
2019-03-26T04:07:38.745Z,0
2019-03-26T04:08:19.887Z,0
2019-03-26T04:08:59.673Z,0
2019-03-26T04:09:40.079Z,0
2019-03-26T04:10:20.441Z,0
2019-03-26T04:11:00.860Z,0
2019-03-26T04:11:41.293Z,0
2019-03-26T04:12:22.517Z,0
2019-03-26T04:13:03.833Z,0
2019-03-26T04:13:44.214Z,0
2019-03-26T04:14:24.640Z,0
2019-03-26T04:15:04.984Z,0
2019-03-26T04:15:45.406Z,0
2019-03-26T04:16:25.864Z,0
2019-03-26T04:17:06.368Z,0
2019-03-26T04:17:46.795Z,0
2019-03-26T04:18:27.196Z,0
2019-03-26T04:19:07.630Z,0
2019-03-26T04:19:48.034Z,0
2019-03-26T04:20:28.463Z,0
2019-03-26T04:21:08.896Z,0
2019-03-26T04:21:49.302Z,0
2019-03-26T04:22:29.939Z,0
2019-03-26T04:23:10.113Z,0
2019-03-26T04:23:50.507Z,0
2019-03-26T04:24:30.890Z,0
2019-03-26T04:25:11.280Z,0
2019-03-26T04:25:51.896Z,0
2019-03-26T04:26:32.304Z,0
2019-03-26T04:27:12.692Z,0
2019-03-26T04:27:53.092Z,0
2019-03-26T05:07:05.273Z,0
2019-03-26T05:07:45.683Z,0
2019-03-26T05:08:26.087Z,0
2019-03-26T05:09:06.528Z,0
2019-03-26T05:09:46.915Z,0
2019-03-26T05:10:27.334Z,0
2019-03-26T05:11:07.741Z,0
2019-03-26T05:11:48.155Z,0
2019-03-26T05:12:28.572Z,0
2019-03-26T05:13:09.005Z,0
2019-03-26T05:13:49.463Z,0
2019-03-26T05:14:29.832Z,0
2019-03-26T05:15:10.258Z,0
2019-03-26T05:15:50.668Z,0
2019-03-26T05:16:31.030Z,0
2019-03-26T05:17:11.482Z,0
2019-03-26T05:17:51.882Z,0
2019-03-26T05:18:32.263Z,0
2019-03-26T05:19:12.670Z,0
2019-03-26T05:21:28.597Z,0
2019-03-26T05:22:09.005Z,0
2019-03-26T05:22:49.428Z,0
2019-03-26T05:25:01.988Z,0
2019-03-26T05:25:42.417Z,0
2019-03-26T05:26:22.774Z,0
2019-03-26T05:27:03.199Z,0
2019-03-26T05:27:45.502Z,0
2019-03-26T05:28:24.024Z,0
2019-03-26T05:29:04.453Z,0
2019-03-26T05:29:44.895Z,0
2019-03-26T05:30:25.286Z,0
2019-03-26T05:31:05.832Z,0
2019-03-26T05:31:46.250Z,0
2019-03-26T05:32:26.685Z,0
2019-03-26T05:33:07.093Z,0
2019-03-26T05:33:47.469Z,0
2019-03-26T05:34:27.893Z,0
2019-03-26T05:35:08.360Z,0
2019-03-26T05:35:51.457Z,0
2019-03-26T05:36:29.992Z,0
2019-03-26T05:37:10.402Z,0
2019-03-26T05:37:50.814Z,0
2019-03-26T05:38:31.252Z,0
2019-03-26T05:39:11.660Z,0
2019-03-26T05:39:52.077Z,0
2019-03-26T05:40:33.458Z,0
2019-03-26T05:41:13.052Z,0
2019-03-26T05:41:53.463Z,0
2019-03-26T05:42:33.912Z,0
2019-03-26T05:43:14.295Z,0
2019-03-26T05:43:54.715Z,0
2019-03-26T05:44:35.124Z,0
2019-03-26T05:45:15.535Z,0
2019-03-26T05:45:55.923Z,0
2019-03-26T05:46:36.362Z,0
2019-03-26T05:47:16.779Z,0
2019-03-26T05:47:57.140Z,0
2019-03-26T05:48:37.574Z,0
2019-03-26T05:49:18.023Z,0
2019-03-26T05:49:58.452Z,0
2019-03-26T05:50:38.883Z,0
2019-03-26T05:51:19.270Z,0
2019-03-26T05:55:43.858Z,0
2019-03-26T05:56:24.277Z,0
2019-03-26T05:57:04.674Z,0
2019-03-26T05:57:47.176Z,0
2019-03-26T05:58:27.550Z,0
2019-03-26T05:59:07.965Z,0
2019-03-26T05:59:48.406Z,0
2019-03-26T06:00:28.839Z,0
2019-03-26T06:01:12.965Z,0
2019-03-26T06:01:53.493Z,0
2019-03-26T06:02:33.962Z,0
2019-03-26T06:03:14.440Z,0
2019-03-26T06:03:54.835Z,0
2019-03-26T06:04:35.243Z,0
2019-03-26T06:05:15.652Z,0
2019-03-26T06:05:56.080Z,0
2019-03-26T06:06:36.471Z,0
2019-03-26T06:07:16.965Z,0
2019-03-26T06:07:57.380Z,0
2019-03-26T06:08:37.695Z,0
2019-03-26T06:09:18.109Z,0
2019-03-26T06:09:58.662Z,0
2019-03-26T06:10:39.060Z,0
2019-03-26T06:11:19.549Z,0
2019-03-26T06:11:59.973Z,0
2019-03-26T06:12:40.336Z,0
2019-03-26T06:13:20.746Z,0
2019-03-26T06:14:01.169Z,0
2019-03-26T06:14:41.565Z,0
2019-03-26T06:15:22.054Z,0
2019-03-26T06:16:02.398Z,0
2019-03-26T06:16:42.779Z,0
2019-03-26T06:17:23.205Z,0
2019-03-26T06:18:03.583Z,0
2019-03-26T06:18:44.001Z,0
2019-03-26T06:19:24.459Z,0
2019-03-26T06:20:04.847Z,0
2019-03-26T06:20:45.233Z,0
2019-03-26T06:21:25.636Z,0
2019-03-26T06:22:06.362Z,0
2019-03-26T06:22:47.755Z,0
2019-03-26T06:23:28.628Z,0
2019-03-26T06:24:08.999Z,0
2019-03-26T06:24:49.421Z,0
2019-03-26T06:25:29.867Z,0
2019-03-26T06:26:10.233Z,0
2019-03-26T06:26:50.803Z,0
2019-03-26T06:27:31.169Z,0
2019-03-26T06:28:11.598Z,0
2019-03-26T06:28:52.094Z,0
2019-03-26T06:29:32.486Z,0
2019-03-26T06:31:46.898Z,0
2019-03-26T06:32:27.299Z,0
2019-03-26T06:33:07.906Z,0
2019-03-26T06:33:48.274Z,0
2019-03-26T06:34:28.888Z,0
2019-03-26T06:35:09.208Z,5
2019-03-26T06:35:49.603Z,5
2019-03-26T06:36:30.000Z,5
2019-03-26T06:37:17.569Z,5
2019-03-26T06:37:52.527Z,5
2019-03-26T06:38:33.144Z,5
2019-03-26T06:39:13.608Z,5
2019-03-26T06:39:54.295Z,5
2019-03-26T06:40:34.577Z,5
2019-03-26T06:41:14.980Z,5
2019-03-26T06:41:55.397Z,5
2019-03-26T06:42:35.849Z,5
2019-03-26T06:43:16.198Z,5
2019-03-26T06:43:56.570Z,5
2019-03-26T06:44:38.840Z,5
2019-03-26T06:45:19.191Z,5
2019-03-26T06:45:59.936Z,5
2019-03-26T06:46:40.298Z,5
2019-03-26T06:47:20.752Z,5
2019-03-26T06:48:04.056Z,5
2019-03-26T06:48:41.635Z,5
2019-03-26T06:49:22.013Z,5
2019-03-26T06:50:02.419Z,5
2019-03-26T06:50:42.848Z,5
2019-03-26T06:51:23.245Z,5
2019-03-26T06:52:03.679Z,5
2019-03-26T06:52:45.674Z,5
2019-03-26T06:55:16.499Z,5
2019-03-26T06:55:56.906Z,5
2019-03-26T06:56:37.288Z,5
2019-03-26T06:57:17.935Z,5
2019-03-26T06:57:58.305Z,5
2019-03-26T06:58:38.728Z,5
2019-03-26T06:59:19.121Z,5
2019-03-26T06:59:59.575Z,5
2019-03-26T07:00:39.986Z,5
2019-03-26T07:01:20.327Z,5
2019-03-26T07:02:00.755Z,5
2019-03-26T07:02:41.142Z,5
2019-03-26T07:03:21.573Z,5
2019-03-26T07:04:02.776Z,5
2019-03-26T07:04:43.188Z,5
2019-03-26T07:05:23.615Z,5
2019-03-26T07:06:04.147Z,5
2019-03-26T07:06:44.534Z,5
2019-03-26T07:07:31.205Z,5
2019-03-26T07:08:05.413Z,5
2019-03-26T07:08:45.830Z,5
2019-03-26T07:09:26.301Z,5
2019-03-26T07:10:06.735Z,5
2019-03-26T07:10:47.152Z,10
2019-03-26T07:11:27.634Z,10
2019-03-26T07:12:08.039Z,10
2019-03-26T07:12:49.016Z,10
2019-03-26T07:13:29.421Z,10
2019-03-26T07:14:10.006Z,10
2019-03-26T07:14:50.434Z,10
2019-03-26T07:15:30.858Z,10
2019-03-26T07:16:11.261Z,10
2019-03-26T07:16:51.643Z,10
2019-03-26T07:17:32.226Z,10
2019-03-26T07:18:12.575Z,10
2019-03-26T07:18:52.996Z,10
2019-03-26T07:19:33.382Z,10
2019-03-26T07:20:13.772Z,10
2019-03-26T07:20:54.191Z,10
2019-03-26T07:21:34.728Z,10
2019-03-26T07:22:15.122Z,10
2019-03-26T07:22:55.528Z,10
2019-03-26T07:23:35.946Z,10
2019-03-26T07:24:16.382Z,10
2019-03-26T07:24:56.808Z,10
2019-03-26T07:25:37.224Z,10
2019-03-26T07:26:17.725Z,10
2019-03-26T07:26:58.177Z,10
2019-03-26T07:27:38.521Z,10
2019-03-26T07:28:19.025Z,10
2019-03-26T07:28:59.415Z,10
2019-03-26T07:32:49.026Z,10
2019-03-26T07:33:29.709Z,10
2019-03-26T07:34:10.106Z,10
2019-03-26T07:34:50.609Z,10
2019-03-26T07:35:30.957Z,10
2019-03-26T07:36:11.364Z,10
2019-03-26T07:36:51.774Z,10
2019-03-26T07:37:44.419Z,10
2019-03-26T07:38:12.618Z,10
2019-03-26T07:38:53.034Z,10
2019-03-26T07:39:33.418Z,10
2019-03-26T07:40:15.582Z,10
2019-03-26T07:40:56.004Z,10
2019-03-26T07:41:36.407Z,10
2019-03-26T07:42:16.940Z,10
2019-03-26T07:42:57.292Z,10
2019-03-26T07:43:37.944Z,10
2019-03-26T07:44:19.373Z,10
2019-03-26T07:44:59.132Z,10
2019-03-26T07:45:39.536Z,10
2019-03-26T07:46:19.943Z,10
2019-03-26T07:47:00.480Z,10
2019-03-26T07:47:41.879Z,10
2019-03-26T07:48:21.513Z,10
2019-03-26T07:49:01.951Z,10
2019-03-26T07:49:42.333Z,10
2019-03-26T07:50:22.686Z,10
2019-03-26T07:53:02.543Z,15
2019-03-26T07:53:42.877Z,15
2019-03-26T07:54:23.283Z,15
2019-03-26T07:55:03.722Z,10
2019-03-26T07:55:45.823Z,10
2019-03-26T07:56:26.396Z,10
2019-03-26T07:57:06.825Z,10
2019-03-26T07:57:47.205Z,10
2019-03-26T07:58:27.630Z,10
2019-03-26T07:59:08.038Z,10
2019-03-26T07:59:49.120Z,10
2019-03-26T08:00:29.539Z,10
2019-03-26T08:01:09.917Z,10
2019-03-26T08:01:50.758Z,10
2019-03-26T08:02:31.171Z,10
2019-03-26T08:03:11.713Z,10
2019-03-26T08:03:52.130Z,10
2019-03-26T08:04:32.540Z,10
2019-03-26T08:05:13.008Z,10
2019-03-26T08:05:56.779Z,10
2019-03-26T08:06:37.160Z,10
2019-03-26T08:07:17.572Z,10
2019-03-26T08:07:58.845Z,10
2019-03-26T08:08:40.651Z,10
2019-03-26T08:09:19.317Z,10
2019-03-26T08:10:00.674Z,10
2019-03-26T08:10:43.112Z,10
2019-03-26T08:11:24.697Z,10
2019-03-26T08:12:05.078Z,10
2019-03-26T08:12:45.531Z,10
2019-03-26T08:13:26.013Z,10
2019-03-26T08:14:06.384Z,10
2019-03-26T08:14:48.444Z,10
2019-03-26T08:15:28.856Z,10
2019-03-26T08:16:09.798Z,10
2019-03-26T08:16:50.234Z,15
2019-03-26T08:17:30.776Z,15
2019-03-26T08:18:11.508Z,15
2019-03-26T08:18:51.919Z,15
2019-03-26T08:19:32.354Z,15
2019-03-26T08:20:12.856Z,15
2019-03-26T08:20:53.211Z,15
2019-03-26T08:21:33.648Z,15
2019-03-26T08:22:14.105Z,15
2019-03-26T08:22:54.490Z,15
2019-03-26T08:23:38.246Z,15
2019-03-26T08:24:15.671Z,15
2019-03-26T08:24:59.044Z,15
2019-03-26T08:25:43.209Z,15
2019-03-26T08:26:24.108Z,15
2019-03-26T08:27:05.300Z,15
2019-03-26T08:27:45.328Z,15
2019-03-26T08:28:26.559Z,20
2019-03-26T08:29:07.660Z,20
2019-03-26T08:29:48.058Z,20
2019-03-26T08:30:28.110Z,20
2019-03-26T08:31:08.896Z,20
2019-03-26T08:31:49.908Z,20
2019-03-26T08:32:30.762Z,20
2019-03-26T08:33:11.534Z,20
2019-03-26T08:33:52.269Z,20
2019-03-26T08:34:34.513Z,15
2019-03-26T08:35:15.044Z,15
2019-03-26T08:35:57.017Z,15
2019-03-26T08:36:38.556Z,15
2019-03-26T08:37:18.969Z,15
2019-03-26T08:38:11.617Z,15
2019-03-26T08:38:42.197Z,15
2019-03-26T08:39:25.609Z,20
2019-03-26T08:40:06.572Z,20
2019-03-26T08:40:46.960Z,20
2019-03-26T08:41:27.903Z,20
2019-03-26T08:42:09.113Z,20
2019-03-26T08:42:49.147Z,20
2019-03-26T08:43:30.580Z,20
2019-03-26T08:44:10.988Z,20
2019-03-26T08:44:53.346Z,20
2019-03-26T08:45:34.073Z,20
2019-03-26T08:46:14.817Z,20
2019-03-26T08:46:57.041Z,20
2019-03-26T08:47:38.600Z,20
2019-03-26T08:48:19.538Z,20
2019-03-26T08:49:00.678Z,25
2019-03-26T08:49:43.508Z,30
2019-03-26T08:50:24.593Z,30
2019-03-26T08:51:09.423Z,35
2019-03-26T08:51:49.994Z,45
2019-03-26T08:52:31.631Z,45
2019-03-26T08:53:11.944Z,50
2019-03-26T08:53:52.400Z,50
2019-03-26T08:54:32.891Z,55
2019-03-26T08:55:13.307Z,55
2019-03-26T08:55:53.781Z,55
2019-03-26T08:56:34.734Z,65
2019-03-26T08:57:15.099Z,65
2019-03-26T08:57:55.480Z,65
2019-03-26T08:58:35.942Z,65
2019-03-26T08:59:16.339Z,70
2019-03-26T08:59:56.779Z,70
2019-03-26T09:00:37.173Z,80
2019-03-26T09:01:17.640Z,80
2019-03-26T09:01:58.166Z,85
2019-03-26T09:02:39.540Z,80
2019-03-26T09:03:19.862Z,75
2019-03-26T09:04:00.351Z,75
2019-03-26T09:04:47.554Z,75
2019-03-26T09:05:28.437Z,80
2019-03-26T09:06:08.943Z,85
2019-03-26T09:06:50.075Z,85
2019-03-26T09:07:30.154Z,80
2019-03-26T09:08:10.984Z,75
2019-03-26T09:11:11.416Z,75
2019-03-26T09:11:51.875Z,75
2019-03-26T09:12:32.264Z,75
2019-03-26T09:13:12.712Z,75
2019-03-26T09:13:54.470Z,75
2019-03-26T09:14:36.845Z,75
2019-03-26T09:15:17.282Z,70
2019-03-26T09:15:57.693Z,70
2019-03-26T09:16:41.747Z,60
2019-03-26T09:17:22.122Z,55
2019-03-26T09:18:03.535Z,55
2019-03-26T09:18:43.398Z,50
2019-03-26T09:19:25.009Z,50
2019-03-26T09:20:08.071Z,50
2019-03-26T09:20:49.504Z,45
2019-03-26T09:21:32.568Z,45
2019-03-26T09:22:12.497Z,45
2019-03-26T09:22:54.628Z,45
2019-03-26T09:23:36.100Z,45
2019-03-26T09:24:16.683Z,45
2019-03-26T09:25:00.021Z,45
2019-03-26T09:25:40.521Z,40
2019-03-26T09:26:20.322Z,40
2019-03-26T09:27:04.716Z,35
2019-03-26T09:27:46.143Z,35
2019-03-26T09:28:26.564Z,35
2019-03-26T09:29:06.945Z,35
2019-03-26T09:29:47.445Z,35
2019-03-26T09:30:27.839Z,35
2019-03-26T09:31:08.275Z,35
2019-03-26T09:31:49.387Z,35
2019-03-26T09:32:31.325Z,30
2019-03-26T09:33:16.325Z,30
2019-03-26T09:33:56.705Z,30
2019-03-26T09:34:37.066Z,30
2019-03-26T09:35:17.545Z,30
2019-03-26T09:35:58.010Z,30
2019-03-26T09:36:38.483Z,30
2019-03-26T09:37:20.013Z,25
2019-03-26T09:38:00.751Z,25
2019-03-26T09:38:43.664Z,25
2019-03-26T09:39:24.340Z,25
2019-03-26T09:40:05.022Z,30
2019-03-26T09:40:46.315Z,30
2019-03-26T09:41:27.107Z,30
2019-03-26T09:42:10.975Z,35
2019-03-26T09:42:51.604Z,35
2019-03-26T09:43:33.058Z,35
2019-03-26T09:44:15.955Z,40
2019-03-26T09:44:56.829Z,40
2019-03-26T09:45:38.012Z,40
2019-03-26T09:46:20.032Z,45
2019-03-26T09:47:15.089Z,45
2019-03-26T09:47:41.481Z,50
2019-03-26T09:48:22.062Z,50
2019-03-26T09:49:02.865Z,50
2019-03-26T09:49:44.027Z,50
2019-03-26T09:50:25.978Z,50
2019-03-26T09:51:10.882Z,50
2019-03-26T09:51:53.249Z,45
2019-03-26T09:52:38.387Z,45
2019-03-26T09:53:19.074Z,45
2019-03-26T09:54:00.449Z,45
2019-03-26T09:54:42.416Z,45
2019-03-26T09:55:23.066Z,45
2019-03-26T09:56:04.591Z,45
2019-03-26T09:56:45.018Z,45
2019-03-26T09:57:26.086Z,45
2019-03-26T09:58:06.603Z,45
2019-03-26T09:58:47.628Z,45
2019-03-26T09:59:27.809Z,45
2019-03-26T10:00:08.225Z,45
2019-03-26T10:00:48.875Z,45
2019-03-26T10:01:29.263Z,45
2019-03-26T10:02:10.337Z,45
2019-03-26T10:02:51.781Z,45
2019-03-26T10:03:32.186Z,45
2019-03-26T10:04:12.662Z,45
2019-03-26T10:04:53.150Z,50
2019-03-26T10:05:33.540Z,50
2019-03-26T10:06:23.021Z,50
2019-03-26T10:06:54.443Z,50
2019-03-26T10:07:34.862Z,50
2019-03-26T10:08:17.747Z,50
2019-03-26T10:08:55.692Z,50
2019-03-26T10:09:36.112Z,50
2019-03-26T10:10:17.557Z,55
2019-03-26T10:10:57.946Z,55
2019-03-26T10:11:39.544Z,55
2019-03-26T10:12:18.815Z,55
2019-03-26T10:12:59.417Z,55
2019-03-26T10:13:40.665Z,55
2019-03-26T10:14:21.110Z,55
2019-03-26T10:15:01.566Z,55
2019-03-26T10:15:41.966Z,60
2019-03-26T10:16:23.422Z,55
2019-03-26T10:17:03.855Z,60
2019-03-26T10:17:45.390Z,60
2019-03-26T10:18:25.760Z,55
2019-03-26T10:19:06.140Z,55
2019-03-26T10:19:46.724Z,55
2019-03-26T10:20:27.768Z,60
2019-03-26T10:21:08.268Z,65
2019-03-26T10:21:48.755Z,60
2019-03-26T10:22:29.204Z,60
2019-03-26T10:23:09.677Z,65
2019-03-26T10:23:51.730Z,65
2019-03-26T10:24:32.096Z,65
2019-03-26T10:25:12.542Z,60
2019-03-26T10:25:53.581Z,60
2019-03-26T10:26:37.826Z,55
2019-03-26T10:27:21.082Z,50
2019-03-26T10:28:01.598Z,45
2019-03-26T10:28:42.018Z,40
2019-03-26T10:29:29.878Z,40
2019-03-26T11:07:28.212Z,20
2019-03-26T11:08:08.734Z,25
2019-03-26T11:08:49.284Z,25
2019-03-26T11:09:29.773Z,25
2019-03-26T11:10:11.969Z,25
2019-03-26T11:10:55.110Z,25
2019-03-26T11:11:35.474Z,20
2019-03-26T11:12:15.869Z,25
2019-03-26T11:12:56.308Z,25
2019-03-26T11:13:36.795Z,25
2019-03-26T11:14:17.167Z,25
2019-03-26T11:14:57.638Z,30
2019-03-26T11:15:38.887Z,30
2019-03-26T11:16:22.551Z,30
2019-03-26T11:17:02.974Z,30
2019-03-26T11:17:43.368Z,30
2019-03-26T11:18:24.503Z,35
2019-03-26T11:19:05.028Z,35
2019-03-26T11:19:47.003Z,35
2019-03-26T11:20:27.477Z,30
2019-03-26T11:21:07.870Z,30
2019-03-26T11:21:48.260Z,25
2019-03-26T11:22:29.037Z,25
2019-03-26T11:23:09.800Z,20
2019-03-26T11:23:50.210Z,20
2019-03-26T11:24:31.087Z,20
2019-03-26T11:25:12.250Z,15
2019-03-26T11:25:51.917Z,15
2019-03-26T11:26:32.561Z,15
2019-03-26T11:27:14.631Z,15
2019-03-26T11:27:54.949Z,15
2019-03-26T11:28:36.189Z,15
2019-03-26T11:29:16.763Z,15